PWSweather.com
Personal Weather Stations
Station Observations
KVAGLENALL
West Henrico, Glen Allen, VA 23060-6503

West HenricoGlen Allen, VA 23060-6503

Lat: 37.6554, Lon: -77.5693

Elevation: 273

Station Type: Davis Vantage Pro II

www.glenallenweather.com

High Low Average
Temperature 93.7°F34.3°C 70.7°F21.5°C 80.3°F26.8°C
Dew Point 76.4°F24.7°C 67.5°F19.7°C 71.4°F21.9°C
Winds 5.0 mph 8.0 kmh Calm Calm 1.0 mph SSW1.6 kmh SSW
Wind Gusts 8.1 mph13.0 kmh -- 3.0 mph4.8 kmh
Humidity 95% 54% 76%
Pressure 30.18 in1022.0 mb 30.11 in1019.6 mb -
Precipitation 0.00 in0.0 mm - -
Hour Temp Dew Point Humidity Winds Wind Gusts Pressure Precip Precip Rate Daily Precip Total
12:30 AM 74.0°F23.3°C 69.9°F21.1°C 87% Calm Calm -- 30.16 in1021.3 mb 0.00 in0.0 mm 0.00 in0.0 mm 0.00 in0.0 mm
01:30 AM 73.2°F22.9°C 69.7°F20.9°C 89% Calm Calm -- 30.15 in1021.0 mb 0.00 in0.0 mm 0.00 in0.0 mm 0.00 in0.0 mm
02:30 AM 72.4°F22.4°C 69.6°F20.9°C 91% Calm Calm -- 30.14 in1020.7 mb 0.00 in0.0 mm 0.00 in0.0 mm 0.00 in0.0 mm
03:30 AM 71.4°F21.9°C 68.9°F20.5°C 92% Calm Calm -- 30.14 in1020.7 mb 0.00 in0.0 mm 0.00 in0.0 mm 0.00 in0.0 mm
04:30 AM 70.7°F21.5°C 68.5°F20.3°C 93% Calm Calm -- 30.15 in1021.0 mb 0.00 in0.0 mm 0.00 in0.0 mm 0.00 in0.0 mm
05:30 AM 70.9°F21.6°C 69.4°F20.8°C 95% Calm Calm -- 30.16 in1021.3 mb 0.00 in0.0 mm 0.00 in0.0 mm 0.00 in0.0 mm
06:30 AM 74.3°F23.5°C 71.5°F21.9°C 91% 2.0 mph NE3.2 kmh NE 2.0 mph3.2 kmh 30.17 in1021.7 mb 0.00 in0.0 mm 0.00 in0.0 mm 0.00 in0.0 mm
07:30 AM 78.7°F25.9°C 72.7°F22.6°C 82% Calm Calm -- 30.17 in1021.7 mb 0.00 in0.0 mm 0.00 in0.0 mm 0.00 in0.0 mm
08:30 AM 86.0°F30.0°C 74.2°F23.4°C 68% 2.0 mph NE3.2 kmh NE 2.0 mph3.2 kmh 30.18 in1022.0 mb 0.00 in0.0 mm 0.00 in0.0 mm 0.00 in0.0 mm
09:30 AM 89.4°F31.9°C 73.7°F23.2°C 60% Calm Calm 2.0 mph3.2 kmh 30.17 in1021.7 mb 0.00 in0.0 mm 0.00 in0.0 mm 0.00 in0.0 mm
10:30 AM 91.2°F32.9°C 74.3°F23.5°C 58% 2.0 mph N3.2 kmh N 6.1 mph9.8 kmh 30.18 in1022.0 mb 0.00 in0.0 mm 0.00 in0.0 mm 0.00 in0.0 mm
11:30 AM 93.4°F34.1°C 75.9°F24.4°C 57% 2.0 mph SSW3.2 kmh SSW 4.0 mph6.4 kmh 30.18 in1022.0 mb 0.00 in0.0 mm 0.00 in0.0 mm 0.00 in0.0 mm
12:30 PM 93.4°F34.1°C 76.4°F24.7°C 58% 4.0 mph S6.4 kmh S 4.0 mph6.4 kmh 30.15 in1021.0 mb 0.00 in0.0 mm 0.00 in0.0 mm 0.00 in0.0 mm
01:30 PM 93.7°F34.3°C 74.5°F23.6°C 54% 2.0 mph SSW3.2 kmh SSW 4.0 mph6.4 kmh 30.12 in1020.0 mb 0.00 in0.0 mm 0.00 in0.0 mm 0.00 in0.0 mm
02:30 PM 90.8°F32.7°C 76.0°F24.4°C 62% 2.0 mph S3.2 kmh S 5.1 mph8.2 kmh 30.11 in1019.6 mb 0.00 in0.0 mm 0.00 in0.0 mm 0.00 in0.0 mm
03:30 PM 85.8°F29.9°C 73.2°F22.9°C 66% 2.0 mph S3.2 kmh S 8.1 mph13.0 kmh 30.12 in1020.0 mb 0.00 in0.0 mm 0.00 in0.0 mm 0.00 in0.0 mm
04:30 PM 83.1°F28.4°C 71.5°F21.9°C 68% 4.0 mph S6.4 kmh S 4.0 mph6.4 kmh 30.13 in1020.3 mb 0.00 in0.0 mm 0.00 in0.0 mm 0.00 in0.0 mm
05:30 PM 80.9°F27.2°C 70.2°F21.2°C 70% 3.0 mph SW4.8 kmh SW 7.1 mph11.4 kmh 30.11 in1019.6 mb 0.00 in0.0 mm 0.00 in0.0 mm 0.00 in0.0 mm
06:30 PM 79.0°F26.1°C 67.5°F19.7°C 68% 5.0 mph WSW8.0 kmh WSW 6.1 mph9.8 kmh 30.13 in1020.3 mb 0.00 in0.0 mm 0.00 in0.0 mm 0.00 in0.0 mm
07:30 PM 76.7°F24.8°C 68.6°F20.3°C 76% Calm Calm 1.0 mph1.6 kmh 30.14 in1020.7 mb 0.00 in0.0 mm 0.00 in0.0 mm 0.00 in0.0 mm
08:30 PM 75.8°F24.3°C 69.2°F20.7°C 80% 1.0 mph W1.6 kmh W 1.0 mph1.6 kmh 30.15 in1021.0 mb 0.00 in0.0 mm 0.00 in0.0 mm 0.00 in0.0 mm
09:30 PM 75.2°F24.0°C 69.0°F20.6°C 81% 1.0 mph SSW1.6 kmh SSW 2.0 mph3.2 kmh 30.14 in1020.7 mb 0.00 in0.0 mm 0.00 in0.0 mm 0.00 in0.0 mm
10:30 PM 74.3°F23.5°C 69.1°F20.6°C 84% Calm Calm 2.0 mph3.2 kmh 30.13 in1020.3 mb 0.00 in0.0 mm 0.00 in0.0 mm 0.00 in0.0 mm
11:30 PM 74.1°F23.4°C 69.3°F20.7°C 85% 1.0 mph SSW1.6 kmh SSW 2.0 mph3.2 kmh 30.14 in1020.7 mb 0.00 in0.0 mm 0.00 in0.0 mm 0.00 in0.0 mm